createdAt,value
2018-08-13T00:00:16.214Z,942.73
2018-08-13T00:01:16.109Z,942.72
2018-08-13T00:02:16.024Z,942.66
2018-08-13T00:03:15.932Z,942.70
2018-08-13T00:04:15.843Z,942.70
2018-08-13T00:05:15.768Z,942.64
2018-08-13T00:06:15.667Z,942.69
2018-08-13T00:07:15.573Z,942.59
2018-08-13T00:08:15.485Z,942.61
2018-08-13T00:09:15.396Z,942.63
2018-08-13T00:10:15.324Z,942.63
2018-08-13T00:11:15.214Z,942.60
2018-08-13T00:12:15.142Z,942.63
2018-08-13T00:13:15.036Z,942.59
2018-08-13T00:14:14.947Z,942.71
2018-08-13T00:15:14.875Z,942.58
2018-08-13T00:16:14.768Z,942.59
2018-08-13T00:17:14.680Z,942.59
2018-08-13T00:18:14.590Z,942.59
2018-08-13T00:19:14.502Z,942.63
2018-08-13T00:20:14.429Z,942.58
2018-08-13T00:21:14.321Z,942.64
2018-08-13T00:22:14.232Z,942.63
2018-08-13T00:23:14.141Z,942.59
2018-08-13T00:24:14.052Z,942.60
2018-08-13T00:25:13.977Z,942.60
2018-08-13T00:26:13.871Z,942.60
2018-08-13T00:27:13.783Z,942.59
2018-08-13T00:28:13.694Z,942.58
2018-08-13T00:29:13.603Z,942.57
2018-08-13T00:30:13.534Z,942.55
2018-08-13T00:31:13.426Z,942.56
2018-08-13T00:32:13.337Z,942.55
2018-08-13T00:33:13.246Z,942.52
2018-08-13T00:34:13.156Z,942.49
2018-08-13T00:35:13.083Z,942.51
2018-08-13T00:36:12.980Z,942.52
2018-08-13T00:37:12.890Z,942.49
2018-08-13T00:38:12.795Z,942.51
2018-08-13T00:39:12.709Z,942.48
2018-08-13T00:40:12.638Z,942.48
2018-08-13T00:41:12.534Z,942.42
2018-08-13T00:42:12.439Z,942.46
2018-08-13T00:43:12.369Z,942.42
2018-08-13T00:44:12.283Z,942.45
2018-08-13T00:45:12.188Z,942.39
2018-08-13T00:46:12.081Z,942.38
2018-08-13T00:47:11.998Z,942.37
2018-08-13T00:48:11.903Z,942.37
2018-08-13T00:49:11.815Z,942.39
2018-08-13T00:50:11.748Z,942.34
2018-08-13T00:51:11.635Z,942.30
2018-08-13T00:52:11.545Z,942.31
2018-08-13T00:53:11.456Z,942.28
2018-08-13T00:54:11.370Z,942.26
2018-08-13T00:55:11.408Z,942.31
2018-08-13T00:56:11.189Z,942.27
2018-08-13T00:57:11.099Z,942.29
2018-08-13T00:58:11.009Z,942.30
2018-08-13T00:59:10.922Z,942.27
2018-08-13T01:00:10.847Z,942.28
2018-08-13T01:01:10.743Z,942.26
2018-08-13T01:02:10.655Z,942.24
2018-08-13T01:03:10.561Z,942.28
2018-08-13T01:04:10.472Z,942.21
2018-08-13T01:05:10.402Z,942.22
2018-08-13T01:06:10.295Z,942.21
2018-08-13T01:07:10.204Z,942.19
2018-08-13T01:08:10.114Z,942.20
2018-08-13T01:09:10.141Z,942.21
2018-08-13T01:10:09.951Z,942.21
2018-08-13T01:11:09.848Z,942.23
2018-08-13T01:12:09.758Z,942.18
2018-08-13T01:13:09.668Z,942.20
2018-08-13T01:14:09.578Z,942.17
2018-08-13T01:15:09.506Z,942.16
2018-08-13T01:16:09.418Z,942.22
2018-08-13T01:17:09.311Z,942.19
2018-08-13T01:18:09.221Z,942.18
2018-08-13T01:19:09.132Z,942.14
2018-08-13T01:20:09.046Z,942.16
2018-08-13T01:21:08.970Z,942.19
2018-08-13T01:22:08.865Z,942.16
2018-08-13T01:23:08.775Z,942.18
2018-08-13T01:24:08.985Z,942.15
2018-08-13T01:25:08.597Z,942.10
2018-08-13T01:26:08.525Z,942.13
2018-08-13T01:27:08.416Z,942.10
2018-08-13T01:28:08.327Z,942.11
2018-08-13T01:29:08.238Z,942.09
2018-08-13T01:30:08.148Z,942.13
2018-08-13T01:31:08.179Z,942.09
2018-08-13T01:32:07.967Z,942.18
2018-08-13T01:33:07.887Z,942.11
2018-08-13T01:34:07.791Z,942.13
2018-08-13T01:35:07.699Z,942.14
2018-08-13T01:36:07.627Z,942.09
2018-08-13T01:37:07.523Z,942.07
2018-08-13T01:38:07.542Z,942.11
2018-08-13T01:39:07.344Z,942.05
2018-08-13T01:40:07.254Z,942.07
2018-08-13T01:41:07.180Z,942.01
2018-08-13T01:42:07.075Z,941.98
2018-08-13T01:43:06.988Z,942.00
2018-08-13T01:44:06.896Z,941.96
2018-08-13T01:45:06.907Z,941.96
2018-08-13T01:46:06.736Z,941.97
2018-08-13T01:47:06.646Z,941.97
2018-08-13T01:48:06.539Z,941.94
2018-08-13T01:49:06.449Z,941.94
2018-08-13T01:50:06.360Z,941.97
2018-08-13T01:51:06.290Z,941.95
2018-08-13T01:52:06.289Z,941.95
2018-08-13T01:53:06.099Z,941.94
2018-08-13T01:54:06.004Z,941.94
2018-08-13T01:55:05.912Z,941.96
2018-08-13T01:56:05.844Z,941.96
2018-08-13T01:57:05.733Z,941.88
2018-08-13T01:58:05.644Z,941.92
2018-08-13T01:59:05.655Z,941.89
2018-08-13T02:00:05.467Z,941.93
2018-08-13T02:01:05.392Z,941.93
2018-08-13T02:02:05.290Z,941.91
2018-08-13T02:03:05.197Z,941.92
2018-08-13T02:04:05.112Z,941.88
2018-08-13T02:05:05.020Z,941.88
2018-08-13T02:06:05.053Z,941.90
2018-08-13T02:07:04.844Z,941.88
2018-08-13T02:08:04.752Z,941.85
2018-08-13T02:09:04.664Z,941.85
2018-08-13T02:10:04.575Z,941.83
2018-08-13T02:11:04.501Z,941.82
2018-08-13T02:12:04.393Z,941.80
2018-08-13T02:13:04.414Z,941.80
2018-08-13T02:14:04.218Z,941.81
2018-08-13T02:15:04.125Z,941.81
2018-08-13T02:16:04.053Z,941.80
2018-08-13T02:17:03.950Z,941.79
2018-08-13T02:18:03.886Z,941.80
2018-08-13T02:19:03.769Z,941.77
2018-08-13T02:20:03.783Z,941.81
2018-08-13T02:21:03.610Z,941.82
2018-08-13T02:22:03.502Z,941.75
2018-08-13T02:23:03.413Z,941.80
2018-08-13T02:24:03.326Z,941.76
2018-08-13T02:25:03.233Z,941.73
2018-08-13T02:26:03.166Z,941.69
2018-08-13T02:27:03.056Z,941.69
2018-08-13T02:28:02.969Z,941.69
2018-08-13T02:29:02.877Z,941.68
2018-08-13T02:30:02.788Z,941.70
2018-08-13T02:31:02.722Z,941.68
2018-08-13T02:32:02.612Z,941.69
2018-08-13T02:33:02.523Z,941.67
2018-08-13T02:34:02.433Z,941.66
2018-08-13T02:35:02.348Z,941.62
2018-08-13T02:36:02.278Z,941.68
2018-08-13T02:37:02.166Z,941.62
2018-08-13T02:38:02.074Z,941.67
2018-08-13T02:39:02.046Z,941.67
2018-08-13T02:40:01.895Z,941.62
2018-08-13T02:41:01.827Z,941.65
2018-08-13T02:42:01.715Z,941.67
2018-08-13T02:43:01.627Z,941.63
2018-08-13T02:44:01.536Z,941.62
2018-08-13T02:45:01.451Z,941.59
2018-08-13T02:46:01.375Z,941.61
2018-08-13T02:47:01.273Z,941.62
2018-08-13T02:48:01.185Z,941.59
2018-08-13T02:49:01.090Z,941.58
2018-08-13T02:50:01.005Z,941.53
2018-08-13T02:51:00.935Z,941.50
2018-08-13T02:52:00.830Z,941.51
2018-08-13T02:53:00.738Z,941.47
2018-08-13T02:54:00.648Z,941.43
2018-08-13T02:55:00.558Z,941.43
2018-08-13T02:56:00.480Z,941.41
2018-08-13T02:57:00.374Z,941.44
2018-08-13T02:58:00.302Z,941.38
2018-08-13T02:59:00.199Z,941.41
2018-08-13T03:00:00.122Z,941.42
2018-08-13T03:01:00.045Z,941.40
2018-08-13T03:01:59.949Z,941.37
2018-08-13T03:02:59.840Z,941.44
2018-08-13T03:03:59.752Z,941.41
2018-08-13T03:04:59.662Z,941.38
2018-08-13T03:05:59.577Z,941.39
2018-08-13T03:06:59.497Z,941.40
2018-08-13T03:07:59.392Z,941.34
2018-08-13T03:08:59.306Z,941.36
2018-08-13T03:09:59.214Z,941.36
2018-08-13T03:10:59.126Z,941.34
2018-08-13T03:11:59.050Z,941.35
2018-08-13T03:12:58.951Z,941.36
2018-08-13T03:13:58.855Z,941.37
2018-08-13T03:14:58.771Z,941.34
2018-08-13T03:15:58.678Z,941.38
2018-08-13T03:16:58.604Z,941.39
2018-08-13T03:17:58.499Z,941.32
2018-08-13T03:18:58.405Z,941.35
2018-08-13T03:19:58.317Z,941.32
2018-08-13T03:20:58.230Z,941.33
2018-08-13T03:21:58.164Z,941.35
2018-08-13T03:22:58.050Z,941.37
2018-08-13T03:23:57.960Z,941.36
2018-08-13T03:24:57.870Z,941.35
2018-08-13T03:25:57.779Z,941.37
2018-08-13T03:26:57.709Z,941.36
2018-08-13T03:27:57.602Z,941.38
2018-08-13T03:28:57.511Z,941.36
2018-08-13T03:29:57.424Z,941.36
2018-08-13T03:30:57.333Z,941.35
2018-08-13T03:31:57.259Z,941.34
2018-08-13T03:32:57.155Z,941.34
2018-08-13T03:33:57.083Z,941.34
2018-08-13T03:34:56.973Z,941.27
2018-08-13T03:35:56.883Z,941.32
2018-08-13T03:36:56.813Z,941.26
2018-08-13T03:37:56.703Z,941.29
2018-08-13T03:38:56.619Z,941.27
2018-08-13T03:39:56.525Z,941.23
2018-08-13T03:40:56.437Z,941.24
2018-08-13T03:41:56.372Z,941.30
2018-08-13T03:42:56.256Z,941.32
2018-08-13T03:43:56.169Z,941.31
2018-08-13T03:44:56.080Z,941.29
2018-08-13T03:45:55.987Z,941.33
2018-08-13T03:46:55.914Z,941.31
2018-08-13T03:47:55.813Z,941.33
2018-08-13T03:48:55.720Z,941.31
2018-08-13T03:49:55.628Z,941.29
2018-08-13T03:50:55.542Z,941.29
2018-08-13T03:51:55.466Z,941.24
2018-08-13T03:52:55.359Z,941.27
2018-08-13T03:53:55.281Z,941.26
2018-08-13T03:54:55.179Z,941.30
2018-08-13T03:55:55.094Z,941.29
2018-08-13T03:56:55.122Z,941.27
2018-08-13T03:57:54.909Z,941.22
2018-08-13T03:58:54.821Z,941.23
2018-08-13T03:59:54.731Z,941.26
2018-08-13T04:00:54.647Z,941.23
2018-08-13T04:01:54.567Z,941.28
2018-08-13T04:02:54.463Z,941.26
2018-08-13T04:03:54.377Z,941.28
2018-08-13T04:04:54.283Z,941.28
2018-08-13T04:05:54.196Z,941.30
2018-08-13T04:06:54.120Z,941.22
2018-08-13T04:07:54.016Z,941.30
2018-08-13T04:08:53.923Z,941.23
2018-08-13T04:09:53.836Z,941.28
2018-08-13T04:10:53.849Z,941.24
2018-08-13T04:11:53.675Z,941.31
2018-08-13T04:12:53.587Z,941.32
2018-08-13T04:13:53.477Z,941.32
2018-08-13T04:14:53.388Z,941.34
2018-08-13T04:15:53.298Z,941.32
2018-08-13T04:16:53.225Z,941.32
2018-08-13T04:17:53.217Z,941.34
2018-08-13T04:18:53.031Z,941.32
2018-08-13T04:19:52.937Z,941.32
2018-08-13T04:20:52.855Z,941.30
2018-08-13T04:21:52.778Z,941.28
2018-08-13T04:22:52.671Z,941.29
2018-08-13T04:23:52.588Z,941.31
2018-08-13T04:24:52.599Z,941.29
2018-08-13T04:25:52.401Z,941.25
2018-08-13T04:26:52.330Z,941.31
2018-08-13T04:27:52.226Z,941.33
2018-08-13T04:28:52.130Z,941.37
2018-08-13T04:29:52.044Z,941.34
2018-08-13T04:30:51.955Z,941.37
2018-08-13T04:31:51.987Z,941.38
2018-08-13T04:32:51.809Z,941.34
2018-08-13T04:33:51.739Z,941.43
2018-08-13T04:34:51.597Z,941.34
2018-08-13T04:35:51.536Z,941.42
2018-08-13T04:36:51.434Z,941.44
2018-08-13T04:37:51.333Z,941.40
2018-08-13T04:38:51.337Z,941.45
2018-08-13T04:39:51.150Z,941.38
2018-08-13T04:40:51.058Z,941.43
2018-08-13T04:41:50.988Z,941.46
2018-08-13T04:42:50.879Z,941.45
2018-08-13T04:43:50.792Z,941.45
2018-08-13T04:44:50.704Z,941.48
2018-08-13T04:45:50.716Z,941.52
2018-08-13T04:46:50.524Z,941.51
2018-08-13T04:47:50.448Z,941.49
2018-08-13T04:48:50.345Z,941.52
2018-08-13T04:49:50.252Z,941.60
2018-08-13T04:50:50.166Z,941.53
2018-08-13T04:51:50.076Z,941.54
2018-08-13T04:52:50.105Z,941.53
2018-08-13T04:53:49.896Z,941.54
2018-08-13T04:54:49.807Z,941.57
2018-08-13T04:55:49.716Z,941.58
2018-08-13T04:56:49.645Z,941.49
2018-08-13T04:57:49.558Z,941.53
2018-08-13T04:58:49.501Z,941.60
2018-08-13T04:59:49.469Z,941.57
2018-08-13T05:00:49.270Z,941.55
2018-08-13T05:01:49.184Z,941.62
2018-08-13T05:02:49.137Z,941.59
2018-08-13T05:03:49.005Z,941.56
2018-08-13T05:04:48.920Z,941.63
2018-08-13T05:05:48.826Z,941.60
2018-08-13T05:06:48.864Z,941.63
2018-08-13T05:07:48.665Z,941.57
2018-08-13T05:08:48.559Z,941.63
2018-08-13T05:09:48.473Z,941.58
2018-08-13T05:10:48.386Z,941.56
2018-08-13T05:11:48.293Z,941.67
2018-08-13T05:12:48.222Z,941.62
2018-08-13T05:13:48.223Z,941.61
2018-08-13T05:14:48.032Z,941.62
2018-08-13T05:15:47.941Z,941.65
2018-08-13T05:16:47.854Z,941.64
2018-08-13T05:17:47.797Z,941.60
2018-08-13T05:18:47.675Z,941.55
2018-08-13T05:19:47.586Z,941.61
2018-08-13T05:20:47.499Z,941.53
2018-08-13T05:21:47.409Z,941.54
2018-08-13T05:22:47.338Z,941.61
2018-08-13T05:23:47.232Z,941.60
2018-08-13T05:24:47.143Z,941.62
2018-08-13T05:25:47.057Z,941.58
2018-08-13T05:26:46.968Z,941.56
2018-08-13T05:27:46.899Z,941.59
2018-08-13T05:28:46.793Z,941.56
2018-08-13T05:29:46.699Z,941.52
2018-08-13T05:30:46.617Z,941.61
2018-08-13T05:31:46.524Z,941.51
2018-08-13T05:32:46.457Z,941.46
2018-08-13T05:33:46.348Z,941.42
2018-08-13T05:34:46.258Z,941.39
2018-08-13T05:35:46.175Z,941.54
2018-08-13T05:36:46.088Z,941.45
2018-08-13T05:37:46.013Z,941.43
2018-08-13T05:38:45.905Z,941.47
2018-08-13T05:39:45.816Z,941.50
2018-08-13T05:40:45.729Z,941.43
2018-08-13T05:41:45.641Z,941.45
2018-08-13T05:42:45.566Z,941.50
2018-08-13T05:43:45.460Z,941.51
2018-08-13T05:44:45.373Z,941.51
2018-08-13T05:45:45.285Z,941.44
2018-08-13T05:46:45.198Z,941.45
2018-08-13T05:47:45.129Z,941.56
2018-08-13T05:48:45.018Z,941.66
2018-08-13T05:49:44.930Z,941.57
2018-08-13T05:50:44.842Z,941.54
2018-08-13T05:51:44.759Z,941.54
2018-08-13T05:52:44.684Z,941.50
2018-08-13T05:53:44.577Z,941.48
2018-08-13T05:54:44.487Z,941.56
2018-08-13T05:55:44.400Z,941.52
2018-08-13T05:56:44.314Z,941.52
2018-08-13T05:57:44.240Z,941.50
2018-08-13T05:58:44.136Z,941.55
2018-08-13T05:59:44.051Z,941.54
2018-08-13T06:00:43.957Z,941.58
2018-08-13T06:01:43.872Z,941.62
2018-08-13T06:02:43.800Z,941.60
2018-08-13T06:03:43.692Z,941.60
2018-08-13T06:04:43.603Z,941.59
2018-08-13T06:05:43.517Z,941.60
2018-08-13T06:06:43.429Z,941.63
2018-08-13T06:07:43.356Z,941.54
2018-08-13T06:08:43.253Z,941.58
2018-08-13T06:09:43.209Z,941.55
2018-08-13T06:10:43.075Z,941.50
2018-08-13T06:11:43.072Z,941.56
2018-08-13T06:12:42.913Z,941.49
2018-08-13T06:13:42.809Z,941.47
2018-08-13T06:14:42.724Z,941.56
2018-08-13T06:15:42.633Z,941.62
2018-08-13T06:16:42.544Z,941.60
2018-08-13T06:17:42.473Z,941.53
2018-08-13T06:18:42.368Z,941.64
2018-08-13T06:19:42.284Z,941.58
2018-08-13T06:20:42.194Z,941.60
2018-08-13T06:21:42.102Z,941.74
2018-08-13T06:22:42.035Z,941.88
2018-08-13T06:23:41.934Z,941.81
2018-08-13T06:24:41.838Z,942.41
2018-08-13T06:25:41.771Z,942.48
2018-08-13T06:26:41.664Z,941.97
2018-08-13T06:27:41.595Z,941.85
2018-08-13T06:28:41.505Z,941.70
2018-08-13T06:29:41.400Z,941.66
2018-08-13T06:30:41.315Z,941.66
2018-08-13T06:31:41.225Z,941.59
2018-08-13T06:32:41.153Z,941.55
2018-08-13T06:33:41.047Z,941.55
2018-08-13T06:34:40.985Z,941.57
2018-08-13T06:35:40.873Z,941.56
2018-08-13T06:36:40.887Z,941.57
2018-08-13T06:37:40.696Z,941.57
2018-08-13T06:38:40.627Z,941.72
2018-08-13T06:39:40.523Z,941.95
2018-08-13T06:40:40.431Z,942.04
2018-08-13T06:41:40.343Z,941.65
2018-08-13T06:42:40.261Z,942.01
2018-08-13T06:43:40.295Z,942.60
2018-08-13T06:44:40.080Z,945.07
2018-08-13T06:45:39.994Z,946.57
2018-08-13T06:46:39.906Z,946.68
2018-08-13T06:47:39.825Z,947.23
2018-08-13T06:48:39.750Z,947.47
2018-08-13T06:49:39.642Z,947.25
2018-08-13T06:50:39.658Z,946.74
2018-08-13T06:51:39.493Z,947.04
2018-08-13T06:52:39.380Z,947.91
2018-08-13T06:53:39.308Z,947.98
2018-08-13T06:54:39.205Z,947.14
2018-08-13T06:55:39.118Z,946.87
2018-08-13T06:56:39.035Z,947.04
2018-08-13T06:57:39.051Z,947.37
2018-08-13T06:58:38.875Z,948.25
2018-08-13T06:59:38.773Z,948.43
2018-08-13T07:00:38.687Z,947.61
2018-08-13T07:01:38.597Z,947.75
2018-08-13T07:02:38.515Z,948.41
2018-08-13T07:03:38.445Z,948.63
2018-08-13T07:04:38.445Z,948.87
2018-08-13T07:05:38.257Z,948.80
2018-08-13T07:06:38.173Z,949.09
2018-08-13T07:07:38.092Z,948.77
2018-08-13T07:08:38.019Z,948.91
2018-08-13T07:09:37.920Z,948.39
2018-08-13T07:10:37.831Z,948.60
2018-08-13T07:11:37.856Z,950.97
2018-08-13T07:12:37.661Z,951.13
2018-08-13T07:13:37.596Z,950.11
2018-08-13T07:14:37.498Z,949.91
2018-08-13T07:15:37.429Z,950.80
2018-08-13T07:16:37.328Z,950.18
2018-08-13T07:17:37.240Z,949.24
2018-08-13T07:18:37.279Z,951.44
2018-08-13T07:19:37.072Z,951.83
2018-08-13T07:20:36.992Z,950.70
2018-08-13T07:21:36.908Z,949.26
2018-08-13T07:22:36.827Z,949.48
2018-08-13T07:23:36.758Z,950.79
2018-08-13T07:24:36.657Z,951.41
2018-08-13T07:25:36.573Z,951.17
2018-08-13T07:26:36.490Z,951.22
2018-08-13T07:27:36.408Z,952.71
2018-08-13T07:28:36.350Z,953.00
2018-08-13T07:29:36.237Z,951.53
2018-08-13T07:30:36.161Z,950.78
2018-08-13T07:31:36.077Z,950.54
2018-08-13T07:32:35.994Z,951.24
2018-08-13T07:33:36.052Z,952.31
2018-08-13T07:34:35.827Z,954.67
2018-08-13T07:35:35.744Z,957.74
2018-08-13T07:36:35.662Z,956.41
2018-08-13T07:37:35.579Z,956.75
2018-08-13T07:38:35.515Z,956.12
2018-08-13T07:39:35.416Z,954.31
2018-08-13T07:40:35.437Z,954.64
2018-08-13T07:41:35.250Z,955.50
2018-08-13T07:42:35.169Z,956.31
2018-08-13T07:43:35.102Z,956.09
2018-08-13T07:44:35.017Z,957.34
2018-08-13T07:45:34.969Z,956.87
2018-08-13T07:46:34.940Z,956.12
2018-08-13T07:47:34.862Z,959.85
2018-08-13T07:48:34.693Z,967.07
2018-08-13T07:49:34.597Z,967.16
2018-08-13T07:50:34.515Z,964.29
2018-08-13T07:51:34.436Z,967.92
2018-08-13T07:52:34.345Z,972.48
2018-08-13T07:53:34.283Z,984.20
2018-08-13T07:54:34.285Z,996.35
2018-08-13T07:55:34.104Z,1000.64
2018-08-13T07:56:34.018Z,1001.74
2018-08-13T07:57:33.939Z,1002.81
2018-08-13T07:58:33.898Z,1000.95
2018-08-13T07:59:33.774Z,993.37
2018-08-13T08:00:33.692Z,991.99
2018-08-13T08:01:33.720Z,987.49
2018-08-13T08:02:33.529Z,980.03
2018-08-13T08:03:33.465Z,974.81
2018-08-13T08:04:33.368Z,970.00
2018-08-13T08:05:33.285Z,960.71
2018-08-13T08:06:33.204Z,954.76
2018-08-13T08:07:33.122Z,952.37
2018-08-13T08:08:33.058Z,951.35
2018-08-13T08:09:32.962Z,950.63
2018-08-13T08:10:32.882Z,950.39
2018-08-13T08:11:32.798Z,950.36
2018-08-13T08:12:32.715Z,950.56
2018-08-13T08:13:32.653Z,950.79
2018-08-13T08:14:32.555Z,950.30
2018-08-13T08:15:32.475Z,950.08
2018-08-13T08:16:32.389Z,949.32
2018-08-13T08:17:32.311Z,949.24
2018-08-13T08:18:32.262Z,948.49
2018-08-13T08:19:32.151Z,947.77
2018-08-13T08:20:32.070Z,947.50
2018-08-13T08:21:31.988Z,946.98
2018-08-13T08:22:31.907Z,946.44
2018-08-13T08:23:31.829Z,946.11
2018-08-13T08:24:31.763Z,945.97
2018-08-13T08:25:31.666Z,945.85
2018-08-13T08:26:31.589Z,945.50
2018-08-13T08:27:31.504Z,945.16
2018-08-13T08:28:31.437Z,945.22
2018-08-13T08:29:31.867Z,945.02
2018-08-13T08:30:31.264Z,944.67
2018-08-13T08:31:31.189Z,944.39
2018-08-13T08:32:31.106Z,944.04
2018-08-13T08:33:31.031Z,943.85
2018-08-13T08:34:30.960Z,943.83
2018-08-13T08:35:30.865Z,943.78
2018-08-13T08:36:30.783Z,943.57
2018-08-13T08:37:30.705Z,943.36
2018-08-13T08:38:30.632Z,943.31
2018-08-13T08:39:30.561Z,943.09
2018-08-13T08:40:30.526Z,942.95
2018-08-13T08:41:30.383Z,942.86
2018-08-13T08:42:30.308Z,942.75
2018-08-13T08:43:30.230Z,942.70
2018-08-13T08:44:30.163Z,942.67
2018-08-13T08:45:30.067Z,942.52
2018-08-13T08:46:29.990Z,942.57
2018-08-13T08:47:29.911Z,942.51
2018-08-13T08:48:29.836Z,942.47
2018-08-13T08:49:29.766Z,942.53
2018-08-13T08:50:29.672Z,942.40
2018-08-13T08:51:29.594Z,942.33
2018-08-13T08:52:29.517Z,942.28
2018-08-13T08:53:29.442Z,942.22
2018-08-13T08:54:29.375Z,942.19
2018-08-13T08:55:29.280Z,942.15
2018-08-13T08:56:29.201Z,942.09
2018-08-13T08:57:29.121Z,942.22
2018-08-13T08:58:29.042Z,942.09
2018-08-13T08:59:28.984Z,942.15
2018-08-13T09:00:28.887Z,942.03
2018-08-13T09:01:28.809Z,942.07
2018-08-13T09:02:28.731Z,941.96
2018-08-13T09:03:28.653Z,942.01
2018-08-13T09:04:28.589Z,941.95
2018-08-13T09:05:28.493Z,941.95
2018-08-13T09:06:28.417Z,942.03
2018-08-13T09:07:28.335Z,942.02
2018-08-13T09:08:28.260Z,942.11
2018-08-13T09:09:28.194Z,942.07
2018-08-13T09:10:28.101Z,942.18
2018-08-13T09:11:28.023Z,942.09
2018-08-13T09:12:27.944Z,942.04
2018-08-13T09:13:27.865Z,942.10
2018-08-13T09:14:27.802Z,942.09
2018-08-13T09:15:27.710Z,942.06
2018-08-13T09:16:27.632Z,942.12
2018-08-13T09:17:27.552Z,942.01
2018-08-13T09:18:27.475Z,941.97
2018-08-13T09:19:27.412Z,942.01
2018-08-13T09:20:27.315Z,941.96
2018-08-13T09:21:27.243Z,941.96
2018-08-13T09:22:27.159Z,941.97
2018-08-13T09:23:27.083Z,941.96
2018-08-13T09:24:27.022Z,941.95
2018-08-13T09:25:26.933Z,941.97
2018-08-13T09:26:26.845Z,942.03
2018-08-13T09:27:26.768Z,941.92
2018-08-13T09:28:26.691Z,941.94
2018-08-13T09:29:26.634Z,941.88
2018-08-13T09:30:26.532Z,941.75
2018-08-13T09:31:26.458Z,941.75
2018-08-13T09:32:26.377Z,941.70
2018-08-13T09:33:26.296Z,941.78
2018-08-13T09:34:26.235Z,941.73
2018-08-13T09:35:26.142Z,941.73
2018-08-13T09:36:26.065Z,941.73
2018-08-13T09:37:25.987Z,941.73
2018-08-13T09:38:26.022Z,941.73
2018-08-13T09:39:25.850Z,941.69
2018-08-13T09:40:25.753Z,941.74
2018-08-13T09:41:25.676Z,941.75
2018-08-13T09:42:25.598Z,941.78
2018-08-13T09:43:25.521Z,941.74
2018-08-13T09:44:25.476Z,941.70
2018-08-13T09:45:25.488Z,941.72
2018-08-13T09:46:25.287Z,941.68
2018-08-13T09:47:25.211Z,941.66
2018-08-13T09:48:25.133Z,941.73
2018-08-13T09:49:25.073Z,941.76
2018-08-13T09:50:24.976Z,941.76
2018-08-13T09:51:24.906Z,941.79
2018-08-13T09:52:24.924Z,941.86
2018-08-13T09:53:24.748Z,941.86
2018-08-13T09:54:24.689Z,941.93
2018-08-13T09:55:24.596Z,941.94
2018-08-13T09:56:24.516Z,941.89
2018-08-13T09:57:24.440Z,941.91
2018-08-13T09:58:24.361Z,941.94
2018-08-13T09:59:24.404Z,941.93
2018-08-13T10:00:24.221Z,941.88
2018-08-13T10:01:24.133Z,941.90
2018-08-13T10:02:24.058Z,941.76
2018-08-13T10:03:23.979Z,941.48
2018-08-13T10:04:23.916Z,941.77
2018-08-13T10:05:23.829Z,941.50
2018-08-13T10:06:23.865Z,941.64
2018-08-13T10:07:23.676Z,941.47
2018-08-13T10:08:23.597Z,941.49
2018-08-13T10:09:23.616Z,941.54
2018-08-13T10:10:23.470Z,941.60
2018-08-13T10:11:23.370Z,941.59
2018-08-13T10:12:23.292Z,941.52
2018-08-13T10:13:23.315Z,941.54
2018-08-13T10:14:23.145Z,941.77
2018-08-13T10:15:23.083Z,941.50
2018-08-13T10:16:22.987Z,941.86
2018-08-13T10:17:22.910Z,942.04
2018-08-13T10:18:22.828Z,941.65
2018-08-13T10:19:22.752Z,942.03
2018-08-13T10:20:22.790Z,942.18
2018-08-13T10:21:22.594Z,942.16
2018-08-13T10:22:22.515Z,941.98
2018-08-13T10:23:22.439Z,941.98
2018-08-13T10:24:22.362Z,941.88
2018-08-13T10:25:22.300Z,941.99
2018-08-13T10:26:22.207Z,941.91
2018-08-13T10:27:22.234Z,941.92
2018-08-13T10:28:22.049Z,941.31
2018-08-13T10:29:21.975Z,941.39
2018-08-13T10:30:21.912Z,941.97
2018-08-13T10:31:21.815Z,941.82
2018-08-13T10:32:21.739Z,941.87
2018-08-13T10:33:21.665Z,941.89
2018-08-13T10:34:21.680Z,941.93
2018-08-13T10:35:21.531Z,941.99
2018-08-13T10:36:21.427Z,942.05
2018-08-13T10:37:21.439Z,942.09
2018-08-13T10:38:21.273Z,942.10
2018-08-13T10:39:21.197Z,941.97
2018-08-13T10:40:21.133Z,941.94
2018-08-13T10:41:21.142Z,941.91
2018-08-13T10:42:20.965Z,941.96
2018-08-13T10:43:20.886Z,942.06
2018-08-13T10:44:20.808Z,941.92
2018-08-13T10:45:20.749Z,941.77
2018-08-13T10:46:20.656Z,941.23
2018-08-13T10:47:20.708Z,941.69
2018-08-13T10:48:20.508Z,942.08
2018-08-13T10:49:20.429Z,942.13
2018-08-13T10:50:20.368Z,942.08
2018-08-13T10:51:20.279Z,942.03
2018-08-13T10:52:20.243Z,942.01
2018-08-13T10:53:20.122Z,941.98
2018-08-13T10:54:20.925Z,941.87
2018-08-13T10:55:19.984Z,941.86
2018-08-13T10:56:19.896Z,941.82
2018-08-13T10:57:19.816Z,941.83
2018-08-13T10:58:19.739Z,941.83
2018-08-13T10:59:19.665Z,941.80
2018-08-13T11:00:19.604Z,941.74
2018-08-13T11:01:19.511Z,941.75
2018-08-13T11:02:19.436Z,941.73
2018-08-13T11:03:19.361Z,941.72
2018-08-13T11:04:19.283Z,941.67
2018-08-13T11:05:19.229Z,941.55
2018-08-13T11:06:19.133Z,941.58
2018-08-13T11:07:19.060Z,941.63
2018-08-13T11:08:18.982Z,941.59
2018-08-13T11:09:18.906Z,941.55
2018-08-13T11:10:18.888Z,941.59
2018-08-13T11:11:18.757Z,941.59
2018-08-13T11:12:18.679Z,941.56
2018-08-13T11:13:18.620Z,941.54
2018-08-13T11:14:18.526Z,941.55
2018-08-13T11:15:18.472Z,941.52
2018-08-13T11:16:18.375Z,941.46
2018-08-13T11:17:18.304Z,941.39
2018-08-13T11:18:18.225Z,941.31
2018-08-13T11:19:18.153Z,941.36
2018-08-13T11:20:18.090Z,941.35
2018-08-13T11:21:17.998Z,941.32
2018-08-13T11:22:17.924Z,941.22
2018-08-13T11:23:17.849Z,941.27
2018-08-13T11:24:17.777Z,941.23
2018-08-13T11:25:17.759Z,941.27
2018-08-13T11:26:17.624Z,941.26
2018-08-13T11:27:17.548Z,941.18
2018-08-13T11:28:17.468Z,941.10
2018-08-13T11:29:17.405Z,941.10
2018-08-13T11:30:17.338Z,941.12
2018-08-13T11:31:17.270Z,941.10
2018-08-13T11:32:17.170Z,941.08
2018-08-13T11:33:17.095Z,941.12
2018-08-13T11:34:17.023Z,941.09
2018-08-13T11:35:16.962Z,941.18
2018-08-13T11:36:16.869Z,941.14
2018-08-13T11:37:16.796Z,941.08
2018-08-13T11:38:16.721Z,941.05
2018-08-13T11:39:16.643Z,941.05
2018-08-13T11:40:16.585Z,941.04
2018-08-13T11:41:16.496Z,941.05
2018-08-13T11:42:16.420Z,941.10
2018-08-13T11:43:16.342Z,941.10
2018-08-13T11:44:16.272Z,941.10
2018-08-13T11:45:16.207Z,941.12
2018-08-13T11:46:16.157Z,941.05
2018-08-13T11:47:16.046Z,941.04
2018-08-13T11:48:15.967Z,941.08
2018-08-13T11:49:15.904Z,941.10
2018-08-13T11:50:15.834Z,941.14
2018-08-13T11:51:15.742Z,941.12
2018-08-13T11:52:15.668Z,941.11
2018-08-13T11:53:15.600Z,941.15
2018-08-13T11:54:15.525Z,941.17
2018-08-13T11:55:15.459Z,940.80
2018-08-13T11:56:15.416Z,941.12
2018-08-13T11:57:15.289Z,941.18
2018-08-13T11:58:15.216Z,941.13
2018-08-13T11:59:15.143Z,941.11
2018-08-13T12:00:15.071Z,941.07
2018-08-13T12:01:15.009Z,940.90
2018-08-13T12:02:14.919Z,941.16
2018-08-13T12:03:14.837Z,941.19
2018-08-13T12:04:14.767Z,941.21
2018-08-13T12:05:14.694Z,941.08
2018-08-13T12:06:14.634Z,941.08
2018-08-13T12:07:14.540Z,941.27
2018-08-13T12:08:14.463Z,941.25
2018-08-13T12:09:14.388Z,941.31
2018-08-13T12:10:14.314Z,941.30
2018-08-13T12:11:14.258Z,941.29
2018-08-13T12:12:14.168Z,941.25
2018-08-13T12:13:14.088Z,941.15
2018-08-13T12:14:14.024Z,941.21
2018-08-13T12:15:13.942Z,941.17
2018-08-13T12:16:13.877Z,941.23
2018-08-13T12:17:13.785Z,941.10
2018-08-13T12:18:13.710Z,941.19
2018-08-13T12:19:13.651Z,941.17
2018-08-13T12:20:13.561Z,941.21
2018-08-13T12:21:13.500Z,941.27
2018-08-13T12:22:13.408Z,941.18
2018-08-13T12:23:13.334Z,941.06
2018-08-13T12:24:13.258Z,940.93
2018-08-13T12:25:13.329Z,940.94
2018-08-13T12:26:13.126Z,940.98
2018-08-13T12:27:13.033Z,940.95